sensor_id;sensor_type;location;lat;lon;timestamp;P1;durP1;ratioP1;P2;durP2;ratioP2
70761;SDS011;58360;0.000;0.000;2023-03-01T00:01:47;14.98;;;7.45;;
70761;SDS011;58360;0.000;0.000;2023-03-01T00:04:13;10.88;;;6.75;;
70761;SDS011;58360;0.000;0.000;2023-03-01T00:06:41;11.55;;;7.53;;
70761;SDS011;58360;0.000;0.000;2023-03-01T00:09:11;13.27;;;7.07;;
70761;SDS011;58360;0.000;0.000;2023-03-01T00:11:37;13.10;;;7.68;;
70761;SDS011;58360;0.000;0.000;2023-03-01T00:14:03;13.05;;;7.35;;
70761;SDS011;58360;0.000;0.000;2023-03-01T00:16:33;13.35;;;7.95;;
70761;SDS011;58360;0.000;0.000;2023-03-01T00:19:03;15.18;;;6.78;;
70761;SDS011;58360;0.000;0.000;2023-03-01T00:21:30;12.20;;;6.65;;
70761;SDS011;58360;0.000;0.000;2023-03-01T00:23:56;12.65;;;8.02;;
70761;SDS011;58360;0.000;0.000;2023-03-01T00:26:22;11.57;;;7.30;;
70761;SDS011;58360;0.000;0.000;2023-03-01T00:28:49;11.30;;;7.15;;
70761;SDS011;58360;0.000;0.000;2023-03-01T00:31:17;14.40;;;7.38;;
70761;SDS011;58360;0.000;0.000;2023-03-01T00:33:46;13.30;;;8.00;;
70761;SDS011;58360;0.000;0.000;2023-03-01T00:36:13;10.63;;;6.78;;
70761;SDS011;58360;0.000;0.000;2023-03-01T00:38:41;14.43;;;7.55;;
70761;SDS011;58360;0.000;0.000;2023-03-01T00:41:12;13.02;;;7.28;;
70761;SDS011;58360;0.000;0.000;2023-03-01T00:43:39;12.32;;;7.45;;
70761;SDS011;58360;0.000;0.000;2023-03-01T00:46:07;13.55;;;7.65;;
70761;SDS011;58360;0.000;0.000;2023-03-01T00:48:34;14.13;;;7.75;;
70761;SDS011;58360;0.000;0.000;2023-03-01T00:51:20;11.90;;;7.13;;
70761;SDS011;58360;0.000;0.000;2023-03-01T00:53:49;12.32;;;7.60;;
70761;SDS011;58360;0.000;0.000;2023-03-01T00:56:15;14.18;;;7.47;;
70761;SDS011;58360;0.000;0.000;2023-03-01T00:58:41;12.32;;;7.25;;
70761;SDS011;58360;0.000;0.000;2023-03-01T01:01:11;11.25;;;7.20;;
70761;SDS011;58360;0.000;0.000;2023-03-01T01:03:43;15.35;;;7.20;;
70761;SDS011;58360;0.000;0.000;2023-03-01T01:06:17;15.73;;;7.68;;
70761;SDS011;58360;0.000;0.000;2023-03-01T01:08:47;13.30;;;7.65;;
70761;SDS011;58360;0.000;0.000;2023-03-01T01:11:13;14.95;;;7.40;;
70761;SDS011;58360;0.000;0.000;2023-03-01T01:13:39;11.85;;;7.47;;
70761;SDS011;58360;0.000;0.000;2023-03-01T01:16:05;17.70;;;7.70;;
70761;SDS011;58360;0.000;0.000;2023-03-01T01:18:31;12.60;;;7.50;;
70761;SDS011;58360;0.000;0.000;2023-03-01T01:20:57;16.60;;;7.65;;
70761;SDS011;58360;0.000;0.000;2023-03-01T01:23:27;15.40;;;8.15;;
70761;SDS011;58360;0.000;0.000;2023-03-01T01:25:53;13.68;;;7.03;;
70761;SDS011;58360;0.000;0.000;2023-03-01T01:28:18;12.55;;;7.60;;
70761;SDS011;58360;0.000;0.000;2023-03-01T01:30:44;11.98;;;7.32;;
70761;SDS011;58360;0.000;0.000;2023-03-01T01:33:10;12.27;;;7.50;;
70761;SDS011;58360;0.000;0.000;2023-03-01T01:35:35;13.38;;;8.05;;
70761;SDS011;58360;0.000;0.000;2023-03-01T01:38:01;14.57;;;8.15;;
70761;SDS011;58360;0.000;0.000;2023-03-01T01:40:27;13.90;;;8.23;;
70761;SDS011;58360;0.000;0.000;2023-03-01T01:42:52;15.90;;;7.93;;
70761;SDS011;58360;0.000;0.000;2023-03-01T01:45:26;15.82;;;8.32;;
70761;SDS011;58360;0.000;0.000;2023-03-01T01:47:55;15.27;;;8.15;;
70761;SDS011;58360;0.000;0.000;2023-03-01T01:50:25;14.52;;;7.88;;
70761;SDS011;58360;0.000;0.000;2023-03-01T01:52:51;14.60;;;8.07;;
70761;SDS011;58360;0.000;0.000;2023-03-01T01:55:19;15.02;;;7.55;;
70761;SDS011;58360;0.000;0.000;2023-03-01T01:57:50;13.68;;;8.18;;
70761;SDS011;58360;0.000;0.000;2023-03-01T02:00:24;13.52;;;8.60;;
70761;SDS011;58360;0.000;0.000;2023-03-01T02:02:57;14.45;;;7.85;;
70761;SDS011;58360;0.000;0.000;2023-03-01T02:05:34;12.70;;;7.22;;
70761;SDS011;58360;0.000;0.000;2023-03-01T02:08:08;20.02;;;8.05;;
70761;SDS011;58360;0.000;0.000;2023-03-01T02:10:37;15.52;;;7.93;;
70761;SDS011;58360;0.000;0.000;2023-03-01T02:13:03;13.43;;;7.78;;
70761;SDS011;58360;0.000;0.000;2023-03-01T02:15:33;13.00;;;8.00;;
70761;SDS011;58360;0.000;0.000;2023-03-01T02:17:59;15.25;;;7.97;;
70761;SDS011;58360;0.000;0.000;2023-03-01T02:20:35;12.13;;;7.85;;
70761;SDS011;58360;0.000;0.000;2023-03-01T02:23:19;13.88;;;8.07;;
70761;SDS011;58360;0.000;0.000;2023-03-01T02:25:56;13.98;;;7.78;;
70761;SDS011;58360;0.000;0.000;2023-03-01T02:28:36;11.93;;;7.63;;
70761;SDS011;58360;0.000;0.000;2023-03-01T02:31:05;15.00;;;7.97;;
70761;SDS011;58360;0.000;0.000;2023-03-01T02:33:51;13.85;;;7.50;;
70761;SDS011;58360;0.000;0.000;2023-03-01T02:36:24;17.50;;;8.25;;
70761;SDS011;58360;0.000;0.000;2023-03-01T02:38:56;14.30;;;8.20;;
70761;SDS011;58360;0.000;0.000;2023-03-01T02:41:25;12.52;;;8.25;;
70761;SDS011;58360;0.000;0.000;2023-03-01T02:43:53;15.23;;;8.15;;
70761;SDS011;58360;0.000;0.000;2023-03-01T02:46:23;15.30;;;8.43;;
70761;SDS011;58360;0.000;0.000;2023-03-01T02:48:51;17.85;;;8.48;;
70761;SDS011;58360;0.000;0.000;2023-03-01T02:56:35;16.05;;;8.43;;
70761;SDS011;58360;0.000;0.000;2023-03-01T02:59:01;14.02;;;8.00;;
70761;SDS011;58360;0.000;0.000;2023-03-01T03:01:27;13.57;;;8.18;;
70761;SDS011;58360;0.000;0.000;2023-03-01T03:04:07;14.10;;;7.88;;
70761;SDS011;58360;0.000;0.000;2023-03-01T03:06:34;13.77;;;7.85;;
70761;SDS011;58360;0.000;0.000;2023-03-01T03:09:01;14.00;;;8.57;;
70761;SDS011;58360;0.000;0.000;2023-03-01T03:11:27;15.63;;;7.47;;
70761;SDS011;58360;0.000;0.000;2023-03-01T03:13:53;14.25;;;8.15;;
70761;SDS011;58360;0.000;0.000;2023-03-01T03:16:19;14.63;;;7.70;;
70761;SDS011;58360;0.000;0.000;2023-03-01T03:18:45;13.20;;;7.68;;
70761;SDS011;58360;0.000;0.000;2023-03-01T03:21:11;13.65;;;8.15;;
70761;SDS011;58360;0.000;0.000;2023-03-01T03:23:38;13.85;;;8.02;;
70761;SDS011;58360;0.000;0.000;2023-03-01T03:26:04;14.80;;;7.80;;
70761;SDS011;58360;0.000;0.000;2023-03-01T03:28:31;13.40;;;7.80;;
70761;SDS011;58360;0.000;0.000;2023-03-01T03:30:57;12.88;;;7.43;;
70761;SDS011;58360;0.000;0.000;2023-03-01T03:33:23;14.40;;;7.63;;
70761;SDS011;58360;0.000;0.000;2023-03-01T03:35:49;16.02;;;8.35;;
70761;SDS011;58360;0.000;0.000;2023-03-01T03:38:16;12.13;;;7.15;;
70761;SDS011;58360;0.000;0.000;2023-03-01T03:41:01;14.50;;;7.97;;
70761;SDS011;58360;0.000;0.000;2023-03-01T03:43:30;13.55;;;7.63;;
70761;SDS011;58360;0.000;0.000;2023-03-01T03:45:57;16.67;;;8.20;;
70761;SDS011;58360;0.000;0.000;2023-03-01T03:48:23;13.82;;;8.13;;
70761;SDS011;58360;0.000;0.000;2023-03-01T03:50:51;13.88;;;7.82;;
70761;SDS011;58360;0.000;0.000;2023-03-01T03:53:21;15.38;;;7.70;;
70761;SDS011;58360;0.000;0.000;2023-03-01T03:55:48;14.93;;;8.00;;
70761;SDS011;58360;0.000;0.000;2023-03-01T03:58:14;14.25;;;8.18;;
70761;SDS011;58360;0.000;0.000;2023-03-01T04:00:42;13.98;;;7.50;;
70761;SDS011;58360;0.000;0.000;2023-03-01T04:03:10;13.23;;;7.45;;
70761;SDS011;58360;0.000;0.000;2023-03-01T04:05:38;13.38;;;7.90;;
70761;SDS011;58360;0.000;0.000;2023-03-01T04:08:05;13.40;;;7.93;;
70761;SDS011;58360;0.000;0.000;2023-03-01T04:10:33;14.20;;;7.72;;
70761;SDS011;58360;0.000;0.000;2023-03-01T04:13:02;15.05;;;8.00;;
70761;SDS011;58360;0.000;0.000;2023-03-01T04:15:28;11.18;;;7.20;;
70761;SDS011;58360;0.000;0.000;2023-03-01T04:17:55;19.58;;;8.40;;
70761;SDS011;58360;0.000;0.000;2023-03-01T04:20:26;20.83;;;7.88;;
70761;SDS011;58360;0.000;0.000;2023-03-01T04:22:58;12.27;;;8.00;;
70761;SDS011;58360;0.000;0.000;2023-03-01T04:25:24;13.68;;;8.00;;
70761;SDS011;58360;0.000;0.000;2023-03-01T04:27:50;15.10;;;7.85;;
70761;SDS011;58360;0.000;0.000;2023-03-01T04:30:15;23.70;;;7.85;;
70761;SDS011;58360;0.000;0.000;2023-03-01T04:32:41;21.77;;;7.82;;
70761;SDS011;58360;0.000;0.000;2023-03-01T04:35:07;16.48;;;8.15;;
70761;SDS011;58360;0.000;0.000;2023-03-01T04:37:33;15.85;;;8.10;;
70761;SDS011;58360;0.000;0.000;2023-03-01T04:40:00;14.73;;;7.80;;
70761;SDS011;58360;0.000;0.000;2023-03-01T04:42:33;16.10;;;7.78;;
70761;SDS011;58360;0.000;0.000;2023-03-01T04:44:59;16.73;;;7.50;;
70761;SDS011;58360;0.000;0.000;2023-03-01T04:47:25;11.52;;;6.95;;
70761;SDS011;58360;0.000;0.000;2023-03-01T04:49:50;13.77;;;7.90;;
70761;SDS011;58360;0.000;0.000;2023-03-01T04:52:16;15.50;;;7.88;;
70761;SDS011;58360;0.000;0.000;2023-03-01T04:54:41;13.00;;;7.70;;
70761;SDS011;58360;0.000;0.000;2023-03-01T04:57:08;12.93;;;7.43;;
70761;SDS011;58360;0.000;0.000;2023-03-01T04:59:33;14.57;;;8.05;;
70761;SDS011;58360;0.000;0.000;2023-03-01T05:02:01;13.15;;;7.63;;
70761;SDS011;58360;0.000;0.000;2023-03-01T05:04:26;12.23;;;7.97;;
70761;SDS011;58360;0.000;0.000;2023-03-01T05:06:53;13.32;;;7.47;;
70761;SDS011;58360;0.000;0.000;2023-03-01T05:09:18;14.90;;;7.35;;
70761;SDS011;58360;0.000;0.000;2023-03-01T05:11:44;14.40;;;7.30;;
70761;SDS011;58360;0.000;0.000;2023-03-01T05:14:11;14.77;;;8.02;;
70761;SDS011;58360;0.000;0.000;2023-03-01T05:16:37;12.32;;;7.50;;
70761;SDS011;58360;0.000;0.000;2023-03-01T05:19:03;13.77;;;7.78;;
70761;SDS011;58360;0.000;0.000;2023-03-01T05:21:39;13.82;;;7.57;;
70761;SDS011;58360;0.000;0.000;2023-03-01T05:24:24;13.57;;;7.90;;
70761;SDS011;58360;0.000;0.000;2023-03-01T05:26:51;12.68;;;7.90;;
70761;SDS011;58360;0.000;0.000;2023-03-01T05:29:21;18.48;;;7.55;;
70761;SDS011;58360;0.000;0.000;2023-03-01T05:31:56;14.02;;;6.70;;
70761;SDS011;58360;0.000;0.000;2023-03-01T05:34:24;14.52;;;7.72;;
70761;SDS011;58360;0.000;0.000;2023-03-01T05:36:51;19.95;;;7.95;;
70761;SDS011;58360;0.000;0.000;2023-03-01T05:39:18;14.82;;;7.55;;
70761;SDS011;58360;0.000;0.000;2023-03-01T05:41:52;15.00;;;7.90;;
70761;SDS011;58360;0.000;0.000;2023-03-01T05:44:18;13.75;;;7.40;;
70761;SDS011;58360;0.000;0.000;2023-03-01T05:46:44;12.48;;;7.60;;
70761;SDS011;58360;0.000;0.000;2023-03-01T05:49:10;13.15;;;7.63;;
70761;SDS011;58360;0.000;0.000;2023-03-01T05:51:38;13.40;;;7.57;;
70761;SDS011;58360;0.000;0.000;2023-03-01T05:54:04;15.32;;;8.15;;
70761;SDS011;58360;0.000;0.000;2023-03-01T05:56:32;26.92;;;7.50;;
70761;SDS011;58360;0.000;0.000;2023-03-01T05:59:02;14.10;;;8.00;;
70761;SDS011;58360;0.000;0.000;2023-03-01T06:01:28;13.70;;;7.60;;
70761;SDS011;58360;0.000;0.000;2023-03-01T06:03:54;14.25;;;7.75;;
70761;SDS011;58360;0.000;0.000;2023-03-01T06:06:20;15.43;;;7.75;;
70761;SDS011;58360;0.000;0.000;2023-03-01T06:08:46;15.00;;;7.80;;
70761;SDS011;58360;0.000;0.000;2023-03-01T06:11:12;13.52;;;8.05;;
70761;SDS011;58360;0.000;0.000;2023-03-01T06:13:38;19.80;;;8.32;;
70761;SDS011;58360;0.000;0.000;2023-03-01T06:16:04;20.83;;;8.18;;
70761;SDS011;58360;0.000;0.000;2023-03-01T06:18:31;16.30;;;8.55;;
70761;SDS011;58360;0.000;0.000;2023-03-01T06:20:57;19.27;;;8.10;;
70761;SDS011;58360;0.000;0.000;2023-03-01T06:23:23;20.15;;;8.93;;
70761;SDS011;58360;0.000;0.000;2023-03-01T06:25:49;14.13;;;7.75;;
70761;SDS011;58360;0.000;0.000;2023-03-01T06:28:15;20.77;;;8.57;;
70761;SDS011;58360;0.000;0.000;2023-03-01T06:30:41;20.17;;;8.95;;
70761;SDS011;58360;0.000;0.000;2023-03-01T06:33:06;16.90;;;8.65;;
70761;SDS011;58360;0.000;0.000;2023-03-01T06:35:32;17.25;;;8.60;;
70761;SDS011;58360;0.000;0.000;2023-03-01T06:37:59;16.65;;;8.50;;
70761;SDS011;58360;0.000;0.000;2023-03-01T06:40:26;25.10;;;11.18;;
70761;SDS011;58360;0.000;0.000;2023-03-01T06:42:52;59.70;;;26.63;;
70761;SDS011;58360;0.000;0.000;2023-03-01T06:45:18;30.40;;;14.93;;
70761;SDS011;58360;0.000;0.000;2023-03-01T06:47:45;25.48;;;13.45;;
70761;SDS011;58360;0.000;0.000;2023-03-01T06:50:11;17.80;;;10.05;;
70761;SDS011;58360;0.000;0.000;2023-03-01T06:52:38;16.83;;;9.65;;
70761;SDS011;58360;0.000;0.000;2023-03-01T06:55:04;19.92;;;8.68;;
70761;SDS011;58360;0.000;0.000;2023-03-01T06:57:30;13.07;;;7.90;;
70761;SDS011;58360;0.000;0.000;2023-03-01T06:59:56;19.02;;;8.80;;
70761;SDS011;58360;0.000;0.000;2023-03-01T07:02:21;16.33;;;8.35;;
70761;SDS011;58360;0.000;0.000;2023-03-01T07:04:50;20.38;;;8.75;;
70761;SDS011;58360;0.000;0.000;2023-03-01T07:07:17;18.65;;;8.10;;
70761;SDS011;58360;0.000;0.000;2023-03-01T07:09:43;13.68;;;8.15;;
70761;SDS011;58360;0.000;0.000;2023-03-01T07:12:10;18.13;;;8.93;;
70761;SDS011;58360;0.000;0.000;2023-03-01T07:14:35;18.08;;;8.57;;
70761;SDS011;58360;0.000;0.000;2023-03-01T07:17:01;14.20;;;8.20;;
70761;SDS011;58360;0.000;0.000;2023-03-01T07:19:27;15.45;;;8.95;;
70761;SDS011;58360;0.000;0.000;2023-03-01T07:21:53;16.73;;;8.23;;
70761;SDS011;58360;0.000;0.000;2023-03-01T07:24:20;20.50;;;9.32;;
70761;SDS011;58360;0.000;0.000;2023-03-01T07:26:50;24.80;;;8.68;;
70761;SDS011;58360;0.000;0.000;2023-03-01T07:29:16;19.27;;;9.55;;
70761;SDS011;58360;0.000;0.000;2023-03-01T07:31:42;16.45;;;9.15;;
70761;SDS011;58360;0.000;0.000;2023-03-01T07:34:10;15.32;;;8.77;;
70761;SDS011;58360;0.000;0.000;2023-03-01T07:36:36;16.92;;;8.70;;
70761;SDS011;58360;0.000;0.000;2023-03-01T07:39:02;17.77;;;9.32;;
70761;SDS011;58360;0.000;0.000;2023-03-01T07:41:28;18.10;;;8.27;;
70761;SDS011;58360;0.000;0.000;2023-03-01T07:43:54;15.52;;;8.68;;
70761;SDS011;58360;0.000;0.000;2023-03-01T07:46:20;18.65;;;8.73;;
70761;SDS011;58360;0.000;0.000;2023-03-01T07:48:46;16.50;;;8.85;;
70761;SDS011;58360;0.000;0.000;2023-03-01T07:51:12;22.80;;;9.65;;
70761;SDS011;58360;0.000;0.000;2023-03-01T07:53:38;21.05;;;9.43;;
70761;SDS011;58360;0.000;0.000;2023-03-01T07:56:07;15.25;;;8.95;;
70761;SDS011;58360;0.000;0.000;2023-03-01T07:58:38;13.80;;;8.07;;
70761;SDS011;58360;0.000;0.000;2023-03-01T08:01:06;19.15;;;8.85;;
70761;SDS011;58360;0.000;0.000;2023-03-01T08:03:34;21.45;;;9.65;;
70761;SDS011;58360;0.000;0.000;2023-03-01T08:06:01;18.50;;;9.80;;
70761;SDS011;58360;0.000;0.000;2023-03-01T08:08:29;16.45;;;9.18;;
70761;SDS011;58360;0.000;0.000;2023-03-01T08:10:58;17.48;;;10.10;;
70761;SDS011;58360;0.000;0.000;2023-03-01T08:13:27;17.23;;;9.15;;
70761;SDS011;58360;0.000;0.000;2023-03-01T08:15:54;16.10;;;9.45;;
70761;SDS011;58360;0.000;0.000;2023-03-01T08:18:25;27.65;;;9.38;;
70761;SDS011;58360;0.000;0.000;2023-03-01T08:20:50;16.83;;;9.60;;
70761;SDS011;58360;0.000;0.000;2023-03-01T08:23:16;16.70;;;9.15;;
70761;SDS011;58360;0.000;0.000;2023-03-01T08:25:42;18.02;;;9.35;;
70761;SDS011;58360;0.000;0.000;2023-03-01T08:28:07;14.63;;;8.82;;
70761;SDS011;58360;0.000;0.000;2023-03-01T08:30:33;15.13;;;9.20;;
70761;SDS011;58360;0.000;0.000;2023-03-01T08:32:59;17.30;;;8.90;;
70761;SDS011;58360;0.000;0.000;2023-03-01T08:35:25;15.60;;;8.45;;
70761;SDS011;58360;0.000;0.000;2023-03-01T08:37:51;13.20;;;8.55;;
70761;SDS011;58360;0.000;0.000;2023-03-01T08:40:16;15.45;;;9.27;;
70761;SDS011;58360;0.000;0.000;2023-03-01T08:42:42;13.15;;;8.73;;
70761;SDS011;58360;0.000;0.000;2023-03-01T08:45:08;16.45;;;8.63;;
70761;SDS011;58360;0.000;0.000;2023-03-01T08:47:35;16.00;;;9.00;;
70761;SDS011;58360;0.000;0.000;2023-03-01T08:50:01;15.90;;;8.60;;
70761;SDS011;58360;0.000;0.000;2023-03-01T08:52:28;17.00;;;8.82;;
70761;SDS011;58360;0.000;0.000;2023-03-01T08:54:55;18.42;;;8.43;;
70761;SDS011;58360;0.000;0.000;2023-03-01T08:57:21;14.23;;;7.43;;
70761;SDS011;58360;0.000;0.000;2023-03-01T08:59:47;19.00;;;8.70;;
70761;SDS011;58360;0.000;0.000;2023-03-01T09:02:13;16.02;;;9.10;;
70761;SDS011;58360;0.000;0.000;2023-03-01T09:04:41;19.95;;;8.57;;
70761;SDS011;58360;0.000;0.000;2023-03-01T09:07:06;15.73;;;8.77;;
70761;SDS011;58360;0.000;0.000;2023-03-01T09:09:32;17.35;;;8.52;;
70761;SDS011;58360;0.000;0.000;2023-03-01T09:11:58;16.02;;;8.63;;
70761;SDS011;58360;0.000;0.000;2023-03-01T09:14:24;13.50;;;7.97;;
70761;SDS011;58360;0.000;0.000;2023-03-01T09:16:49;13.00;;;7.93;;
70761;SDS011;58360;0.000;0.000;2023-03-01T09:19:15;19.92;;;8.38;;
70761;SDS011;58360;0.000;0.000;2023-03-01T09:21:41;15.00;;;8.52;;
70761;SDS011;58360;0.000;0.000;2023-03-01T09:24:17;18.10;;;7.88;;
70761;SDS011;58360;0.000;0.000;2023-03-01T09:26:48;12.80;;;7.95;;
70761;SDS011;58360;0.000;0.000;2023-03-01T09:29:14;15.63;;;7.53;;
70761;SDS011;58360;0.000;0.000;2023-03-01T09:31:40;12.45;;;7.68;;
70761;SDS011;58360;0.000;0.000;2023-03-01T09:34:06;12.20;;;7.53;;
70761;SDS011;58360;0.000;0.000;2023-03-01T09:36:32;12.20;;;7.38;;
70761;SDS011;58360;0.000;0.000;2023-03-01T09:38:58;17.98;;;8.32;;
70761;SDS011;58360;0.000;0.000;2023-03-01T09:44:05;12.30;;;7.28;;
70761;SDS011;58360;0.000;0.000;2023-03-01T09:46:42;15.38;;;6.60;;
70761;SDS011;58360;0.000;0.000;2023-03-01T09:49:17;12.50;;;7.57;;
70761;SDS011;58360;0.000;0.000;2023-03-01T09:52:11;12.45;;;7.68;;
70761;SDS011;58360;0.000;0.000;2023-03-01T09:54:44;15.68;;;7.72;;
70761;SDS011;58360;0.000;0.000;2023-03-01T09:57:14;13.18;;;7.90;;
70761;SDS011;58360;0.000;0.000;2023-03-01T10:02:38;23.53;;;8.33;;
70761;SDS011;58360;0.000;0.000;2023-03-01T10:05:54;14.38;;;7.90;;
70761;SDS011;58360;0.000;0.000;2023-03-01T10:11:21;16.52;;;7.68;;
70761;SDS011;58360;0.000;0.000;2023-03-01T10:14:03;15.07;;;7.65;;
70761;SDS011;58360;0.000;0.000;2023-03-01T10:16:57;15.07;;;7.90;;
70761;SDS011;58360;0.000;0.000;2023-03-01T10:19:37;16.60;;;8.25;;
70761;SDS011;58360;0.000;0.000;2023-03-01T10:22:11;13.38;;;7.75;;
70761;SDS011;58360;0.000;0.000;2023-03-01T10:24:46;13.18;;;8.30;;
70761;SDS011;58360;0.000;0.000;2023-03-01T10:27:23;12.43;;;7.40;;
70761;SDS011;58360;0.000;0.000;2023-03-01T10:32:46;16.75;;;8.13;;
70761;SDS011;58360;0.000;0.000;2023-03-01T10:35:31;13.93;;;7.93;;
70761;SDS011;58360;0.000;0.000;2023-03-01T10:38:06;11.88;;;7.32;;
70761;SDS011;58360;0.000;0.000;2023-03-01T10:40:34;17.88;;;8.63;;
70761;SDS011;58360;0.000;0.000;2023-03-01T10:43:03;12.80;;;7.35;;
70761;SDS011;58360;0.000;0.000;2023-03-01T10:50:40;16.90;;;8.85;;
70761;SDS011;58360;0.000;0.000;2023-03-01T10:53:19;15.13;;;7.47;;
70761;SDS011;58360;0.000;0.000;2023-03-01T10:56:10;14.80;;;7.90;;
70761;SDS011;58360;0.000;0.000;2023-03-01T10:58:39;17.38;;;7.57;;
70761;SDS011;58360;0.000;0.000;2023-03-01T11:03:55;15.48;;;7.85;;
70761;SDS011;58360;0.000;0.000;2023-03-01T11:06:30;14.27;;;7.47;;
70761;SDS011;58360;0.000;0.000;2023-03-01T11:08:57;14.38;;;7.55;;
70761;SDS011;58360;0.000;0.000;2023-03-01T11:11:43;12.27;;;7.22;;
70761;SDS011;58360;0.000;0.000;2023-03-01T11:14:15;12.65;;;7.15;;
70761;SDS011;58360;0.000;0.000;2023-03-01T11:16:44;13.57;;;7.55;;
70761;SDS011;58360;0.000;0.000;2023-03-01T11:21:37;18.23;;;7.18;;
70761;SDS011;58360;0.000;0.000;2023-03-01T11:24:09;10.63;;;6.90;;
70761;SDS011;58360;0.000;0.000;2023-03-01T11:26:42;14.93;;;7.95;;
70761;SDS011;58360;0.000;0.000;2023-03-01T11:29:46;11.07;;;7.03;;
70761;SDS011;58360;0.000;0.000;2023-03-01T11:32:07;15.70;;;7.55;;
70761;SDS011;58360;0.000;0.000;2023-03-01T11:34:47;11.27;;;6.97;;
70761;SDS011;58360;0.000;0.000;2023-03-01T11:40:28;12.75;;;7.50;;
70761;SDS011;58360;0.000;0.000;2023-03-01T11:51:46;13.85;;;6.82;;
70761;SDS011;58360;0.000;0.000;2023-03-01T12:13:38;12.52;;;7.05;;
70761;SDS011;58360;0.000;0.000;2023-03-01T12:24:31;12.20;;;7.30;;
70761;SDS011;58360;0.000;0.000;2023-03-01T12:27:12;16.08;;;7.20;;
70761;SDS011;58360;0.000;0.000;2023-03-01T12:29:54;12.27;;;7.45;;
70761;SDS011;58360;0.000;0.000;2023-03-01T12:32:33;13.10;;;6.57;;
70761;SDS011;58360;0.000;0.000;2023-03-01T12:49:23;11.32;;;6.65;;
70761;SDS011;58360;0.000;0.000;2023-03-01T12:54:58;14.73;;;7.15;;
70761;SDS011;58360;0.000;0.000;2023-03-01T12:57:34;11.10;;;7.13;;
70761;SDS011;58360;0.000;0.000;2023-03-01T13:00:27;10.70;;;6.50;;
70761;SDS011;58360;0.000;0.000;2023-03-01T13:08:51;17.27;;;7.13;;
70761;SDS011;58360;0.000;0.000;2023-03-01T13:11:25;11.18;;;7.03;;
70761;SDS011;58360;0.000;0.000;2023-03-01T13:13:51;12.30;;;6.65;;
70761;SDS011;58360;0.000;0.000;2023-03-01T13:16:40;11.48;;;6.80;;
70761;SDS011;58360;0.000;0.000;2023-03-01T13:22:01;11.68;;;6.50;;
70761;SDS011;58360;0.000;0.000;2023-03-01T13:24:50;11.23;;;5.95;;
70761;SDS011;58360;0.000;0.000;2023-03-01T13:27:36;12.73;;;6.15;;
70761;SDS011;58360;0.000;0.000;2023-03-01T13:30:02;11.35;;;6.10;;
70761;SDS011;58360;0.000;0.000;2023-03-01T13:32:35;13.55;;;6.55;;
70761;SDS011;58360;0.000;0.000;2023-03-01T13:37:40;10.13;;;6.18;;
70761;SDS011;58360;0.000;0.000;2023-03-01T13:42:42;9.55;;;6.22;;
70761;SDS011;58360;0.000;0.000;2023-03-01T13:45:15;9.13;;;6.22;;
70761;SDS011;58360;0.000;0.000;2023-03-01T13:50:48;18.20;;;6.78;;
70761;SDS011;58360;0.000;0.000;2023-03-01T13:53:18;12.95;;;6.95;;
70761;SDS011;58360;0.000;0.000;2023-03-01T13:56:09;9.57;;;6.15;;
70761;SDS011;58360;0.000;0.000;2023-03-01T13:58:46;11.00;;;6.53;;
70761;SDS011;58360;0.000;0.000;2023-03-01T14:03:56;10.93;;;6.40;;
70761;SDS011;58360;0.000;0.000;2023-03-01T14:06:26;14.73;;;6.88;;
70761;SDS011;58360;0.000;0.000;2023-03-01T14:09:10;11.43;;;6.78;;
70761;SDS011;58360;0.000;0.000;2023-03-01T14:19:46;11.35;;;6.85;;
70761;SDS011;58360;0.000;0.000;2023-03-01T14:22:20;12.10;;;7.30;;
70761;SDS011;58360;0.000;0.000;2023-03-01T14:24:54;11.38;;;6.88;;
70761;SDS011;58360;0.000;0.000;2023-03-01T14:27:21;12.18;;;7.05;;
70761;SDS011;58360;0.000;0.000;2023-03-01T14:29:59;20.75;;;8.13;;
70761;SDS011;58360;0.000;0.000;2023-03-01T14:32:28;18.58;;;9.80;;
70761;SDS011;58360;0.000;0.000;2023-03-01T14:34:56;19.88;;;8.40;;
70761;SDS011;58360;0.000;0.000;2023-03-01T14:39:53;13.18;;;6.82;;
70761;SDS011;58360;0.000;0.000;2023-03-01T14:42:21;11.45;;;7.20;;
70761;SDS011;58360;0.000;0.000;2023-03-01T14:44:50;14.15;;;7.45;;
70761;SDS011;58360;0.000;0.000;2023-03-01T14:47:39;29.33;;;7.53;;
70761;SDS011;58360;0.000;0.000;2023-03-01T14:50:08;15.63;;;7.50;;
70761;SDS011;58360;0.000;0.000;2023-03-01T14:52:42;13.93;;;6.97;;
70761;SDS011;58360;0.000;0.000;2023-03-01T14:55:16;11.52;;;6.68;;
70761;SDS011;58360;0.000;0.000;2023-03-01T14:57:48;12.40;;;6.68;;
70761;SDS011;58360;0.000;0.000;2023-03-01T15:00:19;11.32;;;7.13;;
70761;SDS011;58360;0.000;0.000;2023-03-01T15:02:51;10.05;;;6.50;;
70761;SDS011;58360;0.000;0.000;2023-03-01T15:05:21;13.60;;;6.03;;
70761;SDS011;58360;0.000;0.000;2023-03-01T15:07:58;11.18;;;6.72;;
70761;SDS011;58360;0.000;0.000;2023-03-01T15:10:33;10.85;;;6.80;;
70761;SDS011;58360;0.000;0.000;2023-03-01T15:13:19;12.93;;;6.22;;
70761;SDS011;58360;0.000;0.000;2023-03-01T15:15:47;15.75;;;9.27;;
70761;SDS011;58360;0.000;0.000;2023-03-01T15:18:20;10.75;;;6.32;;
70761;SDS011;58360;0.000;0.000;2023-03-01T15:20:50;11.10;;;6.50;;
70761;SDS011;58360;0.000;0.000;2023-03-01T15:23:26;12.38;;;6.38;;
70761;SDS011;58360;0.000;0.000;2023-03-01T15:25:55;11.90;;;7.22;;
70761;SDS011;58360;0.000;0.000;2023-03-01T15:28:22;13.95;;;6.82;;
70761;SDS011;58360;0.000;0.000;2023-03-01T15:31:24;10.13;;;6.78;;
70761;SDS011;58360;0.000;0.000;2023-03-01T15:33:46;11.60;;;5.93;;
70761;SDS011;58360;0.000;0.000;2023-03-01T15:42:04;10.98;;;5.93;;
70761;SDS011;58360;0.000;0.000;2023-03-01T15:44:33;14.68;;;8.05;;
70761;SDS011;58360;0.000;0.000;2023-03-01T15:47:01;9.93;;;5.72;;
70761;SDS011;58360;0.000;0.000;2023-03-01T15:52:03;10.48;;;6.40;;
70761;SDS011;58360;0.000;0.000;2023-03-01T15:54:29;13.15;;;6.40;;
70761;SDS011;58360;0.000;0.000;2023-03-01T15:56:55;10.25;;;6.50;;
70761;SDS011;58360;0.000;0.000;2023-03-01T15:59:21;10.48;;;6.10;;
70761;SDS011;58360;0.000;0.000;2023-03-01T16:01:47;10.40;;;6.93;;
70761;SDS011;58360;0.000;0.000;2023-03-01T16:04:14;13.02;;;7.07;;
70761;SDS011;58360;0.000;0.000;2023-03-01T16:06:52;13.80;;;7.40;;
70761;SDS011;58360;0.000;0.000;2023-03-01T16:09:22;14.95;;;7.00;;
70761;SDS011;58360;0.000;0.000;2023-03-01T16:11:49;14.38;;;7.03;;
70761;SDS011;58360;0.000;0.000;2023-03-01T16:14:16;11.82;;;6.43;;
70761;SDS011;58360;0.000;0.000;2023-03-01T16:16:42;11.80;;;6.63;;
70761;SDS011;58360;0.000;0.000;2023-03-01T16:19:08;11.18;;;6.28;;
70761;SDS011;58360;0.000;0.000;2023-03-01T16:21:35;12.55;;;6.90;;
70761;SDS011;58360;0.000;0.000;2023-03-01T16:24:01;14.82;;;6.63;;
70761;SDS011;58360;0.000;0.000;2023-03-01T16:26:27;11.95;;;6.65;;
70761;SDS011;58360;0.000;0.000;2023-03-01T16:28:56;16.15;;;7.05;;
70761;SDS011;58360;0.000;0.000;2023-03-01T16:31:22;14.60;;;7.10;;
70761;SDS011;58360;0.000;0.000;2023-03-01T16:33:52;12.88;;;6.50;;
70761;SDS011;58360;0.000;0.000;2023-03-01T16:36:19;12.00;;;6.57;;
70761;SDS011;58360;0.000;0.000;2023-03-01T16:38:48;11.18;;;6.97;;
70761;SDS011;58360;0.000;0.000;2023-03-01T16:41:14;13.07;;;6.60;;
70761;SDS011;58360;0.000;0.000;2023-03-01T16:43:42;11.27;;;6.93;;
70761;SDS011;58360;0.000;0.000;2023-03-01T16:46:12;14.57;;;7.55;;
70761;SDS011;58360;0.000;0.000;2023-03-01T16:48:40;12.83;;;6.87;;
70761;SDS011;58360;0.000;0.000;2023-03-01T16:51:06;13.68;;;7.22;;
70761;SDS011;58360;0.000;0.000;2023-03-01T16:53:32;10.00;;;6.45;;
70761;SDS011;58360;0.000;0.000;2023-03-01T16:56:01;13.15;;;7.15;;
70761;SDS011;58360;0.000;0.000;2023-03-01T16:58:28;13.73;;;7.95;;
70761;SDS011;58360;0.000;0.000;2023-03-01T17:00:54;18.15;;;8.02;;
70761;SDS011;58360;0.000;0.000;2023-03-01T17:03:21;15.80;;;7.15;;
70761;SDS011;58360;0.000;0.000;2023-03-01T17:05:48;15.13;;;7.85;;